createdAt,value
2023-05-06T00:01:16.040Z,48832.22
2023-05-06T00:03:42.682Z,48832.22
2023-05-06T00:06:09.306Z,48830.28
2023-05-06T00:08:36.012Z,48830.28
2023-05-06T00:11:02.449Z,48830.28
2023-05-06T00:13:31.818Z,48834.19
2023-05-06T00:15:58.349Z,48836.16
2023-05-06T00:18:24.922Z,48836.16
2023-05-06T00:20:51.647Z,48838.09
2023-05-06T00:23:18.103Z,48838.09
2023-05-06T00:25:45.569Z,48836.16
2023-05-06T00:28:11.961Z,48847.91
2023-05-06T00:30:38.668Z,48842.03
2023-05-06T00:33:05.253Z,48844.00
2023-05-06T00:35:32.571Z,48855.75
2023-05-06T00:38:11.764Z,48851.81
2023-05-06T00:40:39.224Z,48851.81
2023-05-06T00:43:06.126Z,48855.75
2023-05-06T00:45:33.232Z,48855.75
2023-05-06T00:48:00.332Z,48867.50
2023-05-06T00:50:28.561Z,48863.56
2023-05-06T00:52:57.592Z,48859.66
2023-05-06T00:55:24.531Z,48871.41
2023-05-06T00:57:52.621Z,48867.50
2023-05-06T01:00:19.568Z,48875.34
2023-05-06T01:02:48.108Z,48871.41
2023-05-06T01:05:17.522Z,48867.50
2023-05-06T01:07:54.329Z,48871.41
2023-05-06T01:10:48.468Z,48873.38
2023-05-06T01:13:21.537Z,48873.38
2023-05-06T01:15:54.146Z,48879.25
2023-05-06T01:18:26.370Z,48885.13
2023-05-06T01:20:56.172Z,48871.41
2023-05-06T01:23:23.885Z,48867.50
2023-05-06T01:25:50.611Z,48871.41
2023-05-06T01:28:18.108Z,48869.44
2023-05-06T01:31:09.550Z,48875.34
2023-05-06T01:34:02.670Z,48871.41
2023-05-06T01:36:50.804Z,48875.34
2023-05-06T01:39:20.696Z,48887.09
2023-05-06T01:41:52.027Z,48892.97
2023-05-06T01:44:41.589Z,48891.00
2023-05-06T01:47:10.078Z,48898.84
2023-05-06T01:49:37.888Z,48891.00
2023-05-06T01:52:04.498Z,48885.13
2023-05-06T01:54:31.253Z,48887.09
2023-05-06T01:56:57.933Z,48891.00
2023-05-06T01:59:26.201Z,48887.09
2023-05-06T02:01:52.909Z,48879.25
2023-05-06T02:04:19.387Z,48891.00
2023-05-06T02:06:46.690Z,48879.25
2023-05-06T02:09:13.144Z,48879.25
2023-05-06T02:11:40.311Z,48898.84
2023-05-06T02:14:06.754Z,48879.25
2023-05-06T02:16:33.278Z,48879.25
2023-05-06T02:19:00.767Z,48885.13
2023-05-06T02:21:28.640Z,48883.16
2023-05-06T02:23:55.760Z,48894.91
2023-05-06T02:26:22.461Z,48885.13
2023-05-06T02:28:48.933Z,48900.78
2023-05-06T02:31:16.569Z,48891.00
2023-05-06T02:33:45.432Z,48887.09
2023-05-06T02:36:12.001Z,48894.91
2023-05-06T02:38:38.467Z,48898.84
2023-05-06T02:41:04.965Z,48898.84
2023-05-06T02:43:31.482Z,48891.00
2023-05-06T02:45:58.620Z,48887.09
2023-05-06T02:48:26.719Z,48900.78
2023-05-06T02:50:53.206Z,48887.09
2023-05-06T02:53:19.727Z,48887.09
2023-05-06T02:55:47.486Z,48891.00
2023-05-06T02:58:14.595Z,48887.09
2023-05-06T03:00:42.421Z,48891.00
2023-05-06T03:03:09.830Z,48883.16
2023-05-06T03:05:36.613Z,48879.25
2023-05-06T03:08:03.087Z,48891.00
2023-05-06T03:10:29.921Z,48892.97
2023-05-06T03:12:56.656Z,48902.75
2023-05-06T03:15:23.121Z,48894.91
2023-05-06T03:17:49.933Z,48891.00
2023-05-06T03:20:16.830Z,48887.09
2023-05-06T03:22:44.020Z,48898.84
2023-05-06T03:25:10.621Z,48883.16
2023-05-06T03:27:37.505Z,48891.00
2023-05-06T03:30:04.495Z,48883.16
2023-05-06T03:32:32.416Z,48898.84
2023-05-06T03:34:59.156Z,48902.75
2023-05-06T03:37:25.598Z,48894.91
2023-05-06T03:39:52.084Z,48887.09
2023-05-06T03:42:19.928Z,48887.09
2023-05-06T03:44:46.342Z,48883.16
2023-05-06T03:47:12.848Z,48891.00
2023-05-06T03:49:40.102Z,48887.09
2023-05-06T03:52:06.612Z,48891.00
2023-05-06T03:54:34.479Z,48894.91
2023-05-06T03:57:01.558Z,48894.91
2023-05-06T03:59:28.001Z,48898.84
2023-05-06T04:01:54.832Z,48898.84
2023-05-06T04:04:21.893Z,48898.84
2023-05-06T04:06:49.106Z,48887.09
2023-05-06T04:09:16.260Z,48891.00
2023-05-06T04:11:43.436Z,48887.09
2023-05-06T04:14:10.152Z,48889.03
2023-05-06T04:16:37.352Z,48891.00
2023-05-06T04:19:06.336Z,48898.84
2023-05-06T04:21:34.813Z,48887.09
2023-05-06T04:24:01.351Z,48879.25
2023-05-06T04:26:27.773Z,48879.25
2023-05-06T04:28:54.572Z,48887.09
2023-05-06T04:31:21.567Z,48887.09
2023-05-06T04:33:48.569Z,48883.16
2023-05-06T04:36:15.290Z,48898.84
2023-05-06T04:38:41.919Z,48894.91
2023-05-06T04:41:09.084Z,48891.00
2023-05-06T04:43:35.737Z,48891.00
2023-05-06T04:46:02.613Z,48887.09
2023-05-06T04:48:29.321Z,48894.91
2023-05-06T04:50:55.704Z,48891.00
2023-05-06T04:53:22.462Z,48885.13
2023-05-06T04:55:49.180Z,48887.09
2023-05-06T04:58:15.729Z,48867.50
2023-05-06T05:00:42.192Z,48869.44
2023-05-06T05:03:08.774Z,48863.56
2023-05-06T05:05:35.283Z,48863.56
2023-05-06T05:08:02.035Z,48863.56
2023-05-06T05:10:28.607Z,48847.91
2023-05-06T05:12:55.189Z,48859.66
2023-05-06T05:15:21.929Z,48869.44
2023-05-06T05:17:48.606Z,48859.66
2023-05-06T05:20:15.392Z,48855.75
2023-05-06T05:22:42.489Z,48855.75
2023-05-06T05:25:09.113Z,48855.75
2023-05-06T05:27:36.362Z,48859.66
2023-05-06T05:30:02.822Z,48863.56
2023-05-06T05:32:29.360Z,48867.50
2023-05-06T05:34:56.456Z,48853.78
2023-05-06T05:37:22.869Z,48847.91
2023-05-06T05:39:49.292Z,48844.00
2023-05-06T05:42:16.066Z,48861.63
2023-05-06T05:44:43.270Z,48844.00
2023-05-06T05:47:09.956Z,48851.81
2023-05-06T05:49:36.874Z,48847.91
2023-05-06T05:52:03.627Z,48851.81
2023-05-06T05:54:30.110Z,48847.91
2023-05-06T05:56:58.414Z,48855.75
2023-05-06T05:59:26.197Z,48851.81
2023-05-06T06:01:53.687Z,48847.91
2023-05-06T06:04:21.100Z,48855.75
2023-05-06T06:06:47.602Z,48863.56
2023-05-06T06:09:14.070Z,48859.66
2023-05-06T06:11:40.684Z,48859.66
2023-05-06T06:33:01.940Z,48891.00
2023-05-06T06:35:28.375Z,48873.38
2023-05-06T06:37:54.839Z,48879.25
2023-05-06T06:40:21.798Z,48855.75
2023-05-06T06:42:48.373Z,48881.22
2023-05-06T06:45:15.476Z,48879.25
2023-05-06T06:47:41.929Z,48894.91
2023-05-06T06:50:09.024Z,48887.09
2023-05-06T06:52:35.860Z,48875.34
2023-05-06T06:55:02.616Z,48871.41
2023-05-06T06:57:29.028Z,48879.25
2023-05-06T06:59:55.773Z,48885.13
2023-05-06T07:02:23.018Z,48869.44
2023-05-06T07:04:49.931Z,48891.00
2023-05-06T07:07:16.298Z,48885.13
2023-05-06T07:09:44.146Z,48894.91
2023-05-06T07:12:10.644Z,48891.00
2023-05-06T07:14:37.044Z,48894.91
2023-05-06T07:17:03.538Z,48900.78
2023-05-06T07:19:31.539Z,48930.19
2023-05-06T07:21:58.046Z,48914.50
2023-05-06T07:24:24.597Z,48891.00
2023-05-06T07:26:50.975Z,48918.44
2023-05-06T07:29:17.605Z,48906.69
2023-05-06T07:31:44.027Z,48918.44
2023-05-06T07:34:11.061Z,48932.13
2023-05-06T07:36:40.734Z,48910.59
2023-05-06T07:39:07.736Z,48939.97
2023-05-06T07:41:34.228Z,48941.94
2023-05-06T07:44:00.799Z,48961.53
2023-05-06T07:46:27.630Z,48945.84
2023-05-06T07:48:54.164Z,48924.31
2023-05-06T07:51:21.737Z,48953.69
2023-05-06T07:53:48.188Z,48953.69
2023-05-06T07:56:14.701Z,48932.13
2023-05-06T07:58:41.141Z,48926.25
2023-05-06T08:01:07.588Z,48947.81
2023-05-06T08:03:35.126Z,48957.59
2023-05-06T08:06:01.981Z,48955.66
2023-05-06T08:08:28.454Z,48955.66
2023-05-06T08:10:58.836Z,48955.66
2023-05-06T08:13:26.937Z,48949.78
2023-05-06T08:15:54.014Z,48965.44
2023-05-06T08:18:22.926Z,48938.03
2023-05-06T08:20:49.782Z,48981.13
2023-05-06T08:23:16.247Z,48963.50
2023-05-06T08:25:42.935Z,48949.78
2023-05-06T08:28:09.311Z,48945.84
2023-05-06T08:30:35.864Z,48963.50
2023-05-06T08:33:02.597Z,48969.38
2023-05-06T08:35:29.246Z,48963.50
2023-05-06T08:37:55.704Z,48957.59
2023-05-06T08:40:23.975Z,48973.28
2023-05-06T08:42:50.963Z,48987.00
2023-05-06T08:45:17.863Z,48959.56
2023-05-06T08:47:44.487Z,48996.78
2023-05-06T08:50:11.153Z,48979.16
2023-05-06T08:52:39.546Z,49004.63
2023-05-06T08:55:07.355Z,49028.13
2023-05-06T08:57:34.594Z,49008.53
2023-05-06T09:00:01.761Z,49024.22
2023-05-06T09:02:28.539Z,49016.38
2023-05-06T09:04:56.625Z,49041.84
2023-05-06T09:07:24.169Z,49016.38
2023-05-06T09:09:51.543Z,49022.25
2023-05-06T09:12:18.488Z,48981.13
2023-05-06T09:14:46.601Z,48988.94
2023-05-06T09:17:24.274Z,48922.34
2023-05-06T09:19:56.826Z,48949.78
2023-05-06T09:22:24.693Z,48957.59
2023-05-06T09:24:56.578Z,48985.03
2023-05-06T09:27:28.106Z,48961.53
2023-05-06T09:30:07.393Z,48930.19
2023-05-06T09:32:36.818Z,48912.56
2023-05-06T09:35:06.582Z,48934.09
2023-05-06T09:37:32.965Z,48936.06
2023-05-06T09:40:01.034Z,48973.28
2023-05-06T09:42:29.402Z,48973.28
2023-05-06T09:45:00.537Z,48894.91
2023-05-06T09:47:33.161Z,48906.69
2023-05-06T09:50:01.661Z,48887.09
2023-05-06T09:52:28.997Z,48885.13
2023-05-06T09:54:55.952Z,48906.69
2023-05-06T09:57:23.091Z,48926.25
2023-05-06T09:59:52.315Z,48867.50
2023-05-06T10:02:20.025Z,48859.66
2023-05-06T10:04:48.956Z,48844.00
2023-05-06T10:07:19.635Z,48845.94
2023-05-06T10:09:46.811Z,48859.66
2023-05-06T10:12:14.274Z,48855.75
2023-05-06T10:14:40.658Z,48879.25
2023-05-06T10:17:12.392Z,48847.91
2023-05-06T10:19:46.566Z,48855.75
2023-05-06T10:22:51.845Z,48861.63
2023-05-06T10:25:27.333Z,48832.22
2023-05-06T10:27:53.687Z,48849.88
2023-05-06T10:30:21.565Z,48867.50
2023-05-06T10:32:50.389Z,48853.78
2023-05-06T10:35:31.053Z,48892.97
2023-05-06T10:37:59.212Z,48855.75
2023-05-06T10:40:25.902Z,48859.66
2023-05-06T10:42:52.277Z,48861.63
2023-05-06T10:45:18.938Z,48844.00
2023-05-06T10:47:57.626Z,48828.31
2023-05-06T10:50:25.420Z,48844.00
2023-05-06T10:52:55.415Z,48832.22
2023-05-06T10:55:33.311Z,48840.06
2023-05-06T10:58:02.655Z,48836.16
2023-05-06T11:00:33.902Z,48820.47
2023-05-06T11:03:07.437Z,48820.47
2023-05-06T11:05:47.807Z,48808.72
2023-05-06T11:08:15.577Z,48816.56
2023-05-06T11:10:42.086Z,48840.06
2023-05-06T11:13:19.736Z,48830.28
2023-05-06T11:15:46.485Z,48863.56
2023-05-06T11:18:25.199Z,48812.63
2023-05-06T11:21:10.456Z,48816.56
2023-05-06T11:23:43.284Z,48816.56
2023-05-06T11:26:11.078Z,48812.63
2023-05-06T11:28:38.742Z,48836.16
2023-05-06T11:31:05.423Z,48863.56
2023-05-06T11:33:33.604Z,48845.94
2023-05-06T11:36:01.007Z,48836.16
2023-05-06T11:38:43.663Z,48828.31
2023-05-06T11:41:10.274Z,48849.88
2023-05-06T11:43:36.691Z,48828.31
2023-05-06T11:46:03.301Z,48840.06
2023-05-06T11:48:29.924Z,48804.81
2023-05-06T11:50:56.571Z,48867.50
2023-05-06T11:53:24.393Z,48824.41
2023-05-06T11:55:54.406Z,48820.47
2023-05-06T11:58:28.879Z,48824.41
2023-05-06T12:00:57.206Z,48824.41
2023-05-06T12:03:25.631Z,48816.56
2023-05-06T12:05:52.233Z,48840.06
2023-05-06T12:08:27.789Z,48816.56
2023-05-06T12:10:58.472Z,48836.16
2023-05-06T12:13:24.977Z,48822.44
2023-05-06T12:15:54.252Z,48818.53
2023-05-06T12:18:21.226Z,48820.47
2023-05-06T12:20:47.711Z,48824.41
2023-05-06T12:23:16.007Z,48832.22
2023-05-06T12:25:44.738Z,48832.22
2023-05-06T12:28:22.743Z,48830.28
2023-05-06T12:30:49.176Z,48820.47
2023-05-06T12:33:15.827Z,48802.84
2023-05-06T12:35:42.232Z,48822.44
2023-05-06T12:38:11.398Z,48812.63
2023-05-06T12:40:38.462Z,48793.06
2023-05-06T12:43:04.932Z,48785.22
2023-05-06T12:45:31.412Z,48820.47
2023-05-06T12:47:59.501Z,48793.06
2023-05-06T12:50:37.489Z,48828.31
2023-05-06T12:53:05.266Z,48836.16
2023-05-06T12:55:32.618Z,48808.72
2023-05-06T12:57:59.269Z,48816.56
2023-05-06T13:00:25.886Z,48830.28
2023-05-06T13:02:52.393Z,48804.81
2023-05-06T13:05:18.989Z,48812.63
2023-05-06T13:07:45.512Z,48796.97
2023-05-06T13:10:12.407Z,48822.44
2023-05-06T13:12:39.181Z,48812.63
2023-05-06T13:15:06.174Z,48818.53
2023-05-06T13:17:32.745Z,48828.31
2023-05-06T13:19:59.200Z,48816.56
2023-05-06T13:22:25.958Z,48824.41
2023-05-06T13:24:52.613Z,48816.56
2023-05-06T13:27:19.009Z,48806.75
2023-05-06T13:29:46.065Z,48808.72
2023-05-06T13:32:12.440Z,48816.56
2023-05-06T13:34:38.831Z,48785.22
2023-05-06T13:37:05.387Z,48832.22
2023-05-06T13:39:32.190Z,48816.56
2023-05-06T13:41:58.555Z,48816.56
2023-05-06T13:44:24.955Z,48808.72
2023-05-06T13:46:52.420Z,48796.97
2023-05-06T13:49:19.155Z,48804.81
2023-05-06T13:51:45.535Z,48824.41
2023-05-06T13:54:11.991Z,48840.06
2023-05-06T13:56:38.486Z,48796.97
2023-05-06T13:59:04.955Z,48851.81
2023-05-06T14:01:31.382Z,48816.56
2023-05-06T14:03:57.808Z,48781.31
2023-05-06T14:06:24.343Z,48808.72
2023-05-06T14:08:50.740Z,48800.88
2023-05-06T14:11:17.136Z,48834.19
2023-05-06T14:13:43.518Z,48816.56
2023-05-06T14:16:09.931Z,48816.56
2023-05-06T14:18:36.632Z,48800.88
2023-05-06T14:21:03.670Z,48824.41
2023-05-06T14:23:30.522Z,48796.97
2023-05-06T14:25:57.249Z,48806.75
2023-05-06T14:28:23.712Z,48816.56
2023-05-06T14:30:51.044Z,48781.31
2023-05-06T14:33:17.495Z,48824.41
2023-05-06T14:35:45.968Z,48800.88
2023-05-06T14:38:12.376Z,48836.16
2023-05-06T14:40:38.945Z,48824.41
2023-05-06T14:43:06.973Z,48810.69
2023-05-06T14:45:33.464Z,48808.72
2023-05-06T14:47:59.958Z,48822.44
2023-05-06T14:50:26.449Z,48785.22
2023-05-06T14:52:52.825Z,48816.56
2023-05-06T14:55:20.211Z,48840.06
2023-05-06T14:57:46.788Z,48777.38
2023-05-06T15:00:14.858Z,48781.31
2023-05-06T15:02:41.934Z,48824.41
2023-05-06T15:05:13.826Z,48785.22
2023-05-06T15:07:40.421Z,48806.75
2023-05-06T15:10:07.207Z,48793.06
2023-05-06T15:12:34.487Z,48775.41
2023-05-06T15:15:00.943Z,48806.75
2023-05-06T15:17:27.358Z,48789.13
2023-05-06T15:19:53.989Z,48816.56
2023-05-06T15:22:20.618Z,48820.47
2023-05-06T15:24:47.148Z,48798.94
2023-05-06T15:27:15.706Z,48800.88
2023-05-06T15:29:42.109Z,48785.22
2023-05-06T15:32:08.894Z,48808.72
2023-05-06T15:34:35.826Z,48796.97
2023-05-06T15:37:02.284Z,48828.31
2023-05-06T15:39:28.822Z,48818.53
2023-05-06T15:41:58.506Z,48824.41
2023-05-06T15:46:53.011Z,48793.06
2023-05-06T15:49:47.419Z,48812.63
2023-05-06T15:52:06.077Z,48828.31
2023-05-06T15:54:33.584Z,48830.28
2023-05-06T15:57:04.934Z,48806.75
2023-05-06T15:59:32.828Z,48765.63
2023-05-06T16:04:28.989Z,48808.72
2023-05-06T16:06:56.342Z,48816.56
2023-05-06T16:09:22.856Z,48812.63
2023-05-06T16:11:49.375Z,48773.47
2023-05-06T16:14:15.811Z,48800.88
2023-05-06T16:16:42.333Z,48810.69
2023-05-06T16:19:09.264Z,48808.72
2023-05-06T16:21:35.878Z,48793.06
2023-05-06T16:24:02.425Z,48838.09
2023-05-06T16:26:29.030Z,48832.22
2023-05-06T16:28:55.596Z,48812.63
2023-05-06T16:31:22.144Z,48796.97
2023-05-06T16:33:49.250Z,48796.97
2023-05-06T16:36:15.751Z,48800.88
2023-05-06T16:38:42.297Z,48816.56
2023-05-06T16:41:08.711Z,48812.63
2023-05-06T16:43:35.115Z,48802.84
2023-05-06T16:46:01.498Z,48804.81
2023-05-06T16:48:27.998Z,48828.31
2023-05-06T16:50:54.437Z,48812.63
2023-05-06T16:53:21.297Z,48816.56
2023-05-06T16:55:48.838Z,48800.88
2023-05-06T16:58:15.564Z,48828.31
2023-05-06T17:00:42.063Z,48800.88
2023-05-06T17:03:08.766Z,48816.56
2023-05-06T17:05:35.340Z,48789.13
2023-05-06T17:08:03.578Z,48810.69
2023-05-06T17:10:30.113Z,48785.22
2023-05-06T17:12:57.673Z,48771.50
2023-05-06T17:15:24.882Z,48804.81
2023-05-06T17:17:51.837Z,48812.63
2023-05-06T17:20:19.998Z,48798.94
2023-05-06T17:22:46.784Z,48812.63
2023-05-06T17:25:13.489Z,48804.81
2023-05-06T17:27:39.973Z,48812.63
2023-05-06T17:30:09.609Z,48779.34
2023-05-06T17:32:36.371Z,48796.97
2023-05-06T17:35:03.043Z,48802.84
2023-05-06T17:37:30.969Z,48781.31
2023-05-06T17:39:57.439Z,48800.88
2023-05-06T17:42:23.922Z,48824.41
2023-05-06T17:44:50.441Z,48796.97
2023-05-06T17:47:17.598Z,48824.41
2023-05-06T17:49:43.987Z,48785.22
2023-05-06T17:52:10.534Z,48781.31
2023-05-06T17:54:37.959Z,48796.97
2023-05-06T17:57:04.558Z,48791.09
2023-05-06T17:59:31.048Z,48820.47
2023-05-06T18:01:57.615Z,48791.09
2023-05-06T18:04:24.124Z,48781.31
2023-05-06T18:06:50.524Z,48761.72
2023-05-06T18:09:17.565Z,48789.13
2023-05-06T18:11:44.376Z,48793.06
2023-05-06T18:14:11.789Z,48800.88
2023-05-06T18:16:38.345Z,48800.88
2023-05-06T18:19:05.261Z,48787.19
2023-05-06T18:21:33.988Z,48769.53
2023-05-06T18:24:10.082Z,48761.72
2023-05-06T18:26:45.421Z,48800.88
2023-05-06T18:29:12.538Z,48781.31
2023-05-06T18:31:39.107Z,48793.06
2023-05-06T18:34:05.642Z,48783.25
2023-05-06T18:36:32.578Z,48793.06
2023-05-06T18:38:59.047Z,48761.72
2023-05-06T18:41:25.527Z,48820.47
2023-05-06T18:43:51.980Z,48769.53
2023-05-06T18:46:18.723Z,48769.53
2023-05-06T18:48:45.438Z,48795.00
2023-05-06T18:51:18.234Z,48783.25
2023-05-06T18:53:45.140Z,48796.97
2023-05-06T18:56:11.936Z,48785.22
2023-05-06T18:58:39.805Z,48781.31
2023-05-06T19:01:08.190Z,48793.06
2023-05-06T19:03:35.072Z,48773.47
2023-05-06T19:06:04.272Z,48773.47
2023-05-06T19:08:31.679Z,48796.97
2023-05-06T19:11:02.131Z,48779.34
2023-05-06T19:13:29.077Z,48793.06
2023-05-06T19:15:57.123Z,48775.41
2023-05-06T19:18:23.836Z,48777.38
2023-05-06T19:20:50.355Z,48804.81
2023-05-06T19:23:17.022Z,48765.63
2023-05-06T19:25:43.447Z,48783.25
2023-05-06T19:28:09.942Z,48765.63
2023-05-06T19:30:36.465Z,48777.38
2023-05-06T19:33:04.132Z,48785.22
2023-05-06T19:35:30.690Z,48785.22
2023-05-06T19:37:57.745Z,48761.72
2023-05-06T19:40:24.337Z,48789.13
2023-05-06T19:42:50.814Z,48804.81
2023-05-06T19:45:19.198Z,48798.94
2023-05-06T19:47:46.327Z,48777.38
2023-05-06T19:50:13.161Z,48767.59
2023-05-06T19:52:40.219Z,48773.47
2023-05-06T19:55:07.297Z,48777.38
2023-05-06T19:57:34.010Z,48757.78
2023-05-06T20:00:05.126Z,48789.13
2023-05-06T20:02:33.137Z,48787.19
2023-05-06T20:05:00.606Z,48767.59
2023-05-06T20:07:27.529Z,48777.38
2023-05-06T20:09:56.158Z,48767.59
2023-05-06T20:12:26.502Z,48804.81
2023-05-06T20:14:54.281Z,48781.31
2023-05-06T20:17:21.117Z,48767.59
2023-05-06T20:19:48.902Z,48757.78
2023-05-06T20:22:16.002Z,48777.38
2023-05-06T20:24:43.682Z,48777.38
2023-05-06T20:27:10.619Z,48796.97
2023-05-06T20:29:37.579Z,48753.88
2023-05-06T20:32:04.292Z,48761.72
2023-05-06T20:34:31.796Z,48767.59
2023-05-06T20:36:58.234Z,48761.72
2023-05-06T20:39:24.804Z,48796.97
2023-05-06T20:41:51.300Z,48779.34
2023-05-06T20:44:17.795Z,48765.63
2023-05-06T20:46:44.258Z,48757.78
2023-05-06T20:49:10.792Z,48771.50
2023-05-06T20:51:37.398Z,48777.38
2023-05-06T20:54:03.978Z,48757.78
2023-05-06T20:56:30.520Z,48759.75
2023-05-06T20:58:57.010Z,48736.25
2023-05-06T21:01:24.199Z,48757.78
2023-05-06T21:03:51.606Z,48753.88
2023-05-06T21:06:19.202Z,48769.53
2023-05-06T21:08:47.066Z,48781.31
2023-05-06T21:11:14.106Z,48795.00
2023-05-06T21:13:41.498Z,48775.41
2023-05-06T21:16:08.031Z,48765.63
2023-05-06T21:18:34.637Z,48775.41
2023-05-06T21:21:01.232Z,48769.53
2023-05-06T21:23:27.663Z,48746.03
2023-05-06T21:25:54.325Z,48763.66
2023-05-06T21:28:20.708Z,48763.66
2023-05-06T21:30:47.188Z,48759.75
2023-05-06T21:33:13.658Z,48769.53
2023-05-06T21:35:40.149Z,48755.84
2023-05-06T21:38:06.961Z,48773.47
2023-05-06T21:40:33.435Z,48761.72
2023-05-06T21:42:59.916Z,48757.78
2023-05-06T21:45:27.024Z,48757.78
2023-05-06T21:47:53.550Z,48781.31
2023-05-06T21:50:20.228Z,48781.31
2023-05-06T21:52:46.625Z,48757.78
2023-05-06T21:55:13.289Z,48781.31
2023-05-06T21:57:39.866Z,48738.19
2023-05-06T22:00:12.264Z,48777.38
2023-05-06T22:02:40.065Z,48781.31
2023-05-06T22:05:08.299Z,48763.66
2023-05-06T22:07:36.114Z,48761.72
2023-05-06T22:10:03.445Z,48753.88
2023-05-06T22:12:31.304Z,48781.31
2023-05-06T22:14:57.699Z,48769.53
2023-05-06T22:17:24.101Z,48759.75
2023-05-06T22:19:51.498Z,48793.06
2023-05-06T22:22:18.398Z,48789.13
2023-05-06T22:24:44.830Z,48753.88
2023-05-06T22:27:11.349Z,48753.88
2023-05-06T22:29:37.764Z,48773.47
2023-05-06T22:32:04.462Z,48767.59
2023-05-06T22:34:31.001Z,48765.63
2023-05-06T22:36:59.100Z,48746.03
2023-05-06T22:39:27.203Z,48771.50
2023-05-06T22:41:53.625Z,48742.13
2023-05-06T22:44:20.497Z,48755.84
2023-05-06T22:46:47.067Z,48759.75
2023-05-06T22:49:14.418Z,48767.59
2023-05-06T22:51:41.234Z,48757.78
2023-05-06T22:54:07.840Z,48773.47
2023-05-06T22:56:34.214Z,48761.72
2023-05-06T22:59:00.862Z,48773.47
2023-05-06T23:01:32.005Z,48753.88
2023-05-06T23:03:59.385Z,48779.34
2023-05-06T23:06:27.626Z,48761.72
2023-05-06T23:08:54.006Z,48763.66
2023-05-06T23:11:20.485Z,48787.19
2023-05-06T23:13:47.659Z,48789.13
2023-05-06T23:16:14.687Z,48753.88
2023-05-06T23:18:41.442Z,48779.34
2023-05-06T23:21:08.029Z,48746.03
2023-05-06T23:23:34.486Z,48765.63
2023-05-06T23:26:00.883Z,48769.53
2023-05-06T23:28:27.883Z,48771.50
2023-05-06T23:30:54.523Z,48753.88
2023-05-06T23:33:20.987Z,48769.53
2023-05-06T23:35:47.343Z,48767.59
2023-05-06T23:38:14.123Z,48761.72
2023-05-06T23:40:40.494Z,48773.47
2023-05-06T23:43:09.725Z,48765.63
2023-05-06T23:45:36.381Z,48765.63
2023-05-06T23:48:03.034Z,48769.53
2023-05-06T23:50:29.455Z,48773.47
2023-05-06T23:52:55.840Z,48773.47
2023-05-06T23:55:22.559Z,48757.78
2023-05-06T23:57:48.955Z,48781.31
